Antonio Carlos, Brazil
Current Conditions -  °F | °C
As of 12:00 PM on Thursday 18 Dec 2014 (Local Time) from SBFL Reporting Station
Broken Clouds Broken Clouds  
Wind Chill: 81°   Ceiling: 10000
Heat Index: 84°   Visibility: 6mi
Dew Point: 70°   Wind: 0mph
Humidity: 70%   Direction: NA
Pressure: 29.83"   Gusts: NA
Location:  27.52°S, 48.77°W
Report Text: SBFL 181400Z 00000KT 9999 FEW025 BKN100 27/21 Q1010
Loading
Personal Weather Stations






























Interactive Weather Map New forecast layout! Learn more

10-Day Weather Forecast

Advertisements
Track Severe Weather on mobile